Terminal Aerodrome Forecast
Issued by NWS

Home | Current Version | Previous Version | Text Only | Print | Product List | Glossary On
Versions: 1 2 3 4 5 6 7 8 9 10 11 12 13 14
000
FTUS44 KCRP 051724
TAFALI
TAF
KALI 051724Z 0518/0618 13015G25KT P6SM VCTS SCT035CB OVC050
     FM060200 13012G18KT P6SM SCT020
      TEMPO 0606/0609 BKN020
     FM060900 14007KT P6SM BKN015 OVC100
     FM061600 15012G18KT P6SM BKN025=

USA.gov is the U.S. government's official web portal to all federal, state and local government web resources and services.